Lowden, Iowa
Current Conditions -  °F | °C
As of 8:59 AM on Monday 24 Nov 2014 (Local Time) from KDVN Reporting Station
Light Snow Light Snow  
Wind Chill: 13°   Ceiling: 1500
Heat Index: 28°   Visibility: 0.75mi
Dew Point: 25°   Wind: 28mph
Humidity: 88%   Direction: 270°W
Pressure: 29.37"   Gusts: 36mph
Location:  41.86°N, 90.93°W
Report Text: KDVN 241459Z AUTO 27024G31KT 3/4SM -SN BR FEW010 OVC015 M02/M04 A2937 RMK AO2 PK WND 27031/1455 P0000 T10221039
Loading
Personal Weather Stations






























Interactive Weather Map New forecast layout! Learn more

10-Day Weather Forecast

Advertisements
Track Severe Weather on mobile